Time;durP1;ratioP1;P1;durP2;ratioP2;P2;SDS_P1;SDS_P2;PMS_P1;PMS_P2;Temp;Humidity;BMP_temperature;BMP_pressure;BME280_temperature;BME280_humidity;BME280_pressure;Samples;Min_cycle;Max_cycle;Signal;HPM_P1;HPM_P2
2021/12/22 00:01:01;;;;;;;23.50;18.50;;;;;;;-8.69;100.00;98953.69;4929764;28;20489;-71
2021/12/22 00:03:29;;;;;;;22.60;18.97;;;;;;;-8.70;100.00;98965.69;4945077;28;20457;-71
2021/12/22 00:05:57;;;;;;;21.17;18.70;;;;;;;-8.68;100.00;98950.25;4951550;28;20559;-71
2021/12/22 00:08:26;;;;;;;20.57;17.30;;;;;;;-8.81;100.00;98946.97;4958313;28;20878;-70
2021/12/22 00:10:54;;;;;;;25.40;19.03;;;;;;;-8.84;100.00;98952.16;4925261;28;20460;-71
2021/12/22 00:13:23;;;;;;;22.40;17.37;;;;;;;-8.87;100.00;98960.78;4947383;28;20735;-70
2021/12/22 00:15:51;;;;;;;21.13;18.87;;;;;;;-8.90;100.00;98953.94;4935268;28;21946;-71
2021/12/22 00:18:19;;;;;;;27.23;17.83;;;;;;;-8.92;100.00;98958.25;4947784;28;20450;-71
2021/12/22 00:20:47;;;;;;;26.37;18.27;;;;;;;-8.92;100.00;98953.09;4949709;28;21707;-71
2021/12/22 00:23:15;;;;;;;24.90;18.90;;;;;;;-8.91;100.00;98946.22;4958111;28;21005;-71
2021/12/22 00:25:43;;;;;;;22.37;17.53;;;;;;;-8.92;100.00;98954.81;4934103;28;21179;-71
2021/12/22 00:28:11;;;;;;;22.67;16.63;;;;;;;-8.93;100.00;98955.69;4948877;28;20501;-71
2021/12/22 00:30:41;;;;;;;23.57;17.47;;;;;;;-8.95;100.00;98953.16;4935419;28;22355;-70
2021/12/22 00:33:11;;;;;;;21.10;17.67;;;;;;;-8.97;100.00;98947.19;4950083;28;20854;-70
2021/12/22 00:35:42;;;;;;;20.40;17.40;;;;;;;-9.02;100.00;98947.22;4947107;28;20465;-70
2021/12/22 00:38:11;;;;;;;24.97;18.83;;;;;;;-9.01;100.00;98946.34;4957673;28;20545;-70
2021/12/22 00:40:39;;;;;;;19.70;16.77;;;;;;;-9.02;100.00;98954.09;4922043;28;20730;-71
2021/12/22 00:43:07;;;;;;;21.80;16.90;;;;;;;-9.05;100.00;98954.13;4960514;28;20446;-70
2021/12/22 00:45:36;;;;;;;21.57;17.33;;;;;;;-9.08;100.00;98954.16;4917559;28;20485;-70
2021/12/22 00:48:07;;;;;;;23.77;17.50;;;;;;;-9.11;100.00;98946.47;4953225;28;20441;-71
2021/12/22 00:50:36;;;;;;;22.37;18.30;;;;;;;-9.09;100.00;98955.00;4928470;28;20743;-67
2021/12/22 00:53:05;;;;;;;21.27;16.60;;;;;;;-9.13;100.00;98945.63;4956924;28;20453;-71
2021/12/22 00:55:33;;;;;;;28.60;19.37;;;;;;;-9.18;100.00;98943.16;4927094;28;20462;-72
2021/12/22 00:58:01;;;;;;;23.93;17.13;;;;;;;-9.16;100.00;98946.53;4947339;28;20446;-70
2021/12/22 01:00:29;;;;;;;21.97;16.87;;;;;;;-9.14;100.00;98949.94;4944170;28;20492;-71
2021/12/22 01:02:58;;;;;;;24.47;19.77;;;;;;;-9.19;100.00;98952.56;4933182;28;20508;-70
2021/12/22 01:05:27;;;;;;;24.67;18.87;;;;;;;-9.19;100.00;98956.84;4945519;28;21068;-70
2021/12/22 01:07:55;;;;;;;24.93;18.07;;;;;;;-9.23;100.00;98953.44;4955933;28;20468;-73
2021/12/22 01:10:26;;;;;;;23.87;18.23;;;;;;;-9.26;100.00;98956.06;4955568;28;20996;-70
2021/12/22 01:12:56;;;;;;;27.97;20.00;;;;;;;-9.27;100.00;98958.66;4923752;28;20629;-71
2021/12/22 01:15:24;;;;;;;26.87;18.37;;;;;;;-9.31;100.00;98960.41;4942209;28;20488;-71
2021/12/22 01:17:59;;;;;;;24.53;19.30;;;;;;;-9.35;100.00;98958.72;4933329;28;20449;-69
2021/12/22 01:20:34;;;;;;;24.47;17.90;;;;;;;-9.37;100.00;98957.91;4945418;28;20508;-71
2021/12/22 01:23:06;;;;;;;22.57;18.57;;;;;;;-9.38;100.00;98956.19;4948968;28;20453;-71
2021/12/22 01:25:42;;;;;;;23.37;16.93;;;;;;;-9.45;100.00;98960.53;4957242;28;20477;-70
2021/12/22 01:28:10;;;;;;;23.27;18.00;;;;;;;-9.46;100.00;98959.69;4934188;28;20484;-71
2021/12/22 01:30:43;;;;;;;23.80;15.87;;;;;;;-9.50;100.00;98960.56;4949004;28;20454;-72
2021/12/22 01:33:11;;;;;;;16.43;14.70;;;;;;;-9.47;100.00;98962.25;4922666;28;20591;-70
2021/12/22 01:35:41;;;;;;;21.73;15.60;;;;;;;-9.49;100.00;98969.13;4956384;28;20470;-72
2021/12/22 01:38:10;;;;;;;17.47;14.97;;;;;;;-9.54;100.00;98961.47;4945671;28;20734;-71
2021/12/22 01:40:42;;;;;;;21.07;15.47;;;;;;;-9.55;100.00;98956.38;4957521;28;20478;-71
2021/12/22 01:43:10;;;;;;;22.27;15.83;;;;;;;-9.56;100.00;98964.94;4930429;28;20472;-72
2021/12/22 01:46:09;;;;;;;22.67;15.10;;;;;;;-9.57;100.00;98965.78;4957281;28;20484;-71
2021/12/22 01:51:35;;;;;;;17.10;14.37;;;;;;;-9.65;100.00;98971.84;4956788;28;20438;-70
2021/12/22 01:54:06;;;;;;;23.07;14.83;;;;;;;-9.64;100.00;98965.84;4943775;28;20527;-71
2021/12/22 01:56:35;;;;;;;17.93;15.97;;;;;;;-9.60;100.00;98966.66;4957831;28;20568;-72
2021/12/22 01:59:06;;;;;;;20.07;15.70;;;;;;;-9.64;100.00;98965.84;4926794;28;20833;-71
2021/12/22 02:01:34;;;;;;;19.33;14.20;;;;;;;-9.63;100.00;98980.38;4955742;28;20504;-70
2021/12/22 02:04:04;;;;;;;20.83;15.07;;;;;;;-9.61;100.00;98981.22;4924739;28;21075;-70
2021/12/22 02:06:34;;;;;;;16.87;12.83;;;;;;;-9.59;100.00;98978.63;4956183;28;20473;-70
2021/12/22 02:09:03;;;;;;;19.10;13.57;;;;;;;-9.60;100.00;98984.63;4946302;28;20460;-70
2021/12/22 02:11:31;;;;;;;14.40;12.90;;;;;;;-9.63;100.00;98982.94;4958796;28;20438;-70
2021/12/22 02:14:02;;;;;;;15.57;13.73;;;;;;;-9.56;100.00;98980.31;4934981;28;20795;-70
2021/12/22 02:16:34;;;;;;;21.20;15.47;;;;;;;-9.59;100.00;98976.06;4955312;28;20496;-72
2021/12/22 02:19:04;;;;;;;18.23;12.17;;;;;;;-9.61;100.00;98972.66;4929407;28;20469;-72
2021/12/22 02:21:39;;;;;;;15.87;12.13;;;;;;;-9.64;100.00;98967.56;4957643;28;20489;-74
2021/12/22 02:24:07;;;;;;;15.57;12.37;;;;;;;-9.68;100.00;98966.72;4944119;28;20441;-69
2021/12/22 02:26:39;;;;;;;14.77;12.20;;;;;;;-9.71;100.00;98966.75;4956963;28;20466;-70
2021/12/22 02:29:18;;;;;;;14.23;11.10;;;;;;;-9.71;100.00;98960.78;4929725;28;20878;-72
2021/12/22 02:32:01;;;;;;;13.03;11.73;;;;;;;-9.76;100.00;98971.06;4958428;28;20452;-72
2021/12/22 02:34:29;;;;;;;13.40;11.40;;;;;;;-9.78;100.00;98977.94;4954252;28;20446;-72
2021/12/22 02:37:02;;;;;;;15.13;11.87;;;;;;;-9.82;100.00;98971.13;4932493;28;20769;-71
2021/12/22 02:39:30;;;;;;;15.73;11.77;;;;;;;-9.80;100.00;98971.97;4947288;28;20457;-71
2021/12/22 02:41:58;;;;;;;17.20;13.30;;;;;;;-9.81;100.00;98981.41;4955378;28;20485;-70
2021/12/22 02:44:26;;;;;;;14.80;10.97;;;;;;;-9.82;100.00;98976.25;4955617;28;20457;-73
2021/12/22 02:46:54;;;;;;;15.43;11.40;;;;;;;-9.83;100.00;98969.44;4935379;28;20848;-70
2021/12/22 02:49:22;;;;;;;14.73;11.80;;;;;;;-9.81;100.00;98972.84;4946129;28;20659;-70
2021/12/22 02:51:50;;;;;;;15.53;12.30;;;;;;;-9.82;100.00;98976.25;4931160;28;20461;-71
2021/12/22 02:54:22;;;;;;;16.07;12.47;;;;;;;-9.83;100.00;98980.56;4943401;28;20703;-70
2021/12/22 02:56:56;;;;;;;15.67;11.13;;;;;;;-9.88;100.00;98977.16;4942448;28;20466;-71
2021/12/22 03:02:16;;;;;;;12.43;10.87;;;;;;;-9.87;100.00;98986.53;4929930;28;20486;-72
2021/12/22 03:04:52;;;;;;;12.00;10.67;;;;;;;-9.89;100.00;98985.72;4946215;28;20880;-72
2021/12/22 03:07:23;;;;;;;16.80;12.83;;;;;;;-9.84;100.00;98986.56;4932528;28;21118;-72
2021/12/22 03:10:00;;;;;;;11.90;10.13;;;;;;;-9.88;100.00;98985.72;4950872;28;20444;-72
2021/12/22 03:12:32;;;;;;;14.10;11.50;;;;;;;-9.86;100.00;98984.84;4956447;28;20449;-73
2021/12/22 03:15:00;;;;;;;11.73;10.43;;;;;;;-9.85;100.00;98986.53;4953418;28;20453;-73
2021/12/22 03:17:28;;;;;;;12.73;11.13;;;;;;;-9.87;100.00;98991.69;4935266;28;20773;-72
2021/12/22 03:19:56;;;;;;;11.87;10.67;;;;;;;-9.89;100.00;98989.13;4944887;28;20461;-72
2021/12/22 03:22:24;;;;;;;16.07;10.83;;;;;;;-9.92;100.00;98994.28;4933907;28;21397;-73
2021/12/22 03:24:52;;;;;;;13.60;10.43;;;;;;;-9.93;100.00;98982.34;4952711;28;20453;-71
2021/12/22 03:27:23;;;;;;;11.80;9.73;;;;;;;-9.97;100.00;98990.06;4949611;28;20682;-70
2021/12/22 03:29:51;;;;;;;12.77;9.93;;;;;;;-10.00;100.00;98990.94;4956061;28;20446;-71
2021/12/22 03:32:19;;;;;;;12.03;9.73;;;;;;;-10.05;100.00;98990.09;4932398;28;20652;-71
2021/12/22 03:34:47;;;;;;;11.20;9.77;;;;;;;-10.09;100.00;98996.13;4959389;28;20454;-70
2021/12/22 03:37:15;;;;;;;14.53;10.23;;;;;;;-10.09;100.00;98985.84;4944897;28;20492;-71
2021/12/22 03:39:43;;;;;;;10.80;9.47;;;;;;;-10.12;100.00;98993.56;4937190;28;20519;-72
2021/12/22 03:42:12;;;;;;;15.53;9.97;;;;;;;-10.11;100.00;98996.16;4945389;28;20766;-71
2021/12/22 03:44:41;;;;;;;8.90;7.97;;;;;;;-10.11;100.00;98992.72;4961004;28;21233;-72
2021/12/22 03:47:11;;;;;;;13.57;9.70;;;;;;;-10.12;100.00;98997.00;4933286;28;20714;-71
2021/12/22 03:49:39;;;;;;;11.47;9.17;;;;;;;-10.10;100.00;98990.16;4960264;28;20468;-71
2021/12/22 03:52:07;;;;;;;10.47;9.37;;;;;;;-10.06;100.00;98991.81;4949407;28;20825;-69
2021/12/22 03:54:36;;;;;;;13.23;10.37;;;;;;;-10.08;100.00;98988.44;4939157;28;20453;-70
2021/12/22 03:57:04;;;;;;;12.50;9.70;;;;;;;-10.07;100.00;98982.44;4946628;28;20937;-72
2021/12/22 03:59:32;;;;;;;10.50;9.47;;;;;;;-10.09;100.00;98991.00;4946436;28;20481;-72
2021/12/22 04:02:01;;;;;;;10.17;8.93;;;;;;;-10.13;100.00;98989.31;4957846;28;20482;-68
2021/12/22 04:04:29;;;;;;;10.00;8.93;;;;;;;-10.17;100.00;98991.91;4924051;28;20455;-72
2021/12/22 04:06:57;;;;;;;10.73;9.67;;;;;;;-10.18;100.00;98985.06;4948840;28;20464;-71
2021/12/22 04:09:27;;;;;;;14.70;10.10;;;;;;;-10.23;100.00;98996.19;4932584;28;20546;-73
2021/12/22 04:11:56;;;;;;;9.93;8.93;;;;;;;-10.29;100.00;98993.69;4944191;28;20905;-73
2021/12/22 04:14:24;;;;;;;8.43;7.63;;;;;;;-10.30;100.00;98987.72;4956814;28;20461;-70
2021/12/22 04:16:52;;;;;;;8.83;8.03;;;;;;;-10.12;100.00;98989.31;4956117;28;21228;-73
2021/12/22 04:19:21;;;;;;;9.87;8.80;;;;;;;-10.17;100.00;98991.91;4935901;28;20996;-71
2021/12/22 04:21:50;;;;;;;11.40;9.07;;;;;;;-10.22;100.00;98996.19;4940839;28;20735;-72
2021/12/22 04:24:19;;;;;;;9.57;7.80;;;;;;;-10.25;100.00;98995.34;4957263;28;20821;-71
2021/12/22 04:26:47;;;;;;;9.93;8.03;;;;;;;-10.23;100.00;98997.06;4927149;28;20888;-74
2021/12/22 04:29:15;;;;;;;10.33;9.23;;;;;;;-10.24;100.00;98991.94;4959127;28;20702;-71
2021/12/22 04:31:43;;;;;;;15.27;9.60;;;;;;;-10.24;100.00;98994.50;4956462;28;20453;-76
2021/12/22 04:34:11;;;;;;;11.77;10.33;;;;;;;-10.21;100.00;98999.63;4937212;28;20457;-71
2021/12/22 04:36:41;;;;;;;10.20;9.20;;;;;;;-10.21;100.00;98995.34;4934883;28;20870;-71
2021/12/22 04:39:10;;;;;;;9.57;8.40;;;;;;;-10.29;100.00;99004.78;4956525;28;20892;-72
2021/12/22 04:41:38;;;;;;;11.37;10.23;;;;;;;-10.33;100.00;98998.00;4928427;28;20458;-69
2021/12/22 04:44:06;;;;;;;11.57;9.23;;;;;;;-10.37;100.00;98998.88;4947249;28;21076;-71
2021/12/22 04:46:35;;;;;;;12.33;9.70;;;;;;;-10.44;100.00;98997.22;4952936;28;21015;-72
2021/12/22 04:49:04;;;;;;;9.93;8.93;;;;;;;-10.49;100.00;98999.81;4957438;28;20454;-71
2021/12/22 04:51:35;;;;;;;10.67;9.13;;;;;;;-10.49;100.00;98995.53;4921548;28;22039;-73
2021/12/22 04:54:15;;;;;;;11.17;9.93;;;;;;;-10.51;100.00;98997.25;4950156;28;20468;-71
2021/12/22 04:56:43;;;;;;;9.87;8.73;;;;;;;-10.44;100.00;98992.94;4929158;28;20488;-73
2021/12/22 04:59:11;;;;;;;10.57;9.30;;;;;;;-10.44;100.00;98994.66;4942787;28;20445;-72
2021/12/22 05:01:40;;;;;;;16.60;9.63;;;;;;;-10.48;100.00;99004.91;4941873;28;20488;-72
2021/12/22 05:04:11;;;;;;;10.03;8.83;;;;;;;-10.52;100.00;99004.97;4955652;28;20583;-73
2021/12/22 05:06:40;;;;;;;11.83;9.80;;;;;;;-10.58;100.00;99010.13;4924503;28;20488;-70
2021/12/22 05:09:09;;;;;;;10.70;9.67;;;;;;;-10.60;100.00;99002.44;4948260;28;20473;-71
2021/12/22 05:11:38;;;;;;;13.73;10.33;;;;;;;-10.60;100.00;98997.31;4935230;28;20477;-72
2021/12/22 05:14:08;;;;;;;12.67;9.30;;;;;;;-10.50;100.00;98996.38;4946969;28;20755;-70
2021/12/22 05:16:44;;;;;;;12.80;9.53;;;;;;;-10.38;100.00;98998.00;4956192;28;20465;-72
2021/12/22 05:19:14;;;;;;;15.73;10.57;;;;;;;-10.40;100.00;98994.63;4956500;28;20944;-71
2021/12/22 05:21:43;;;;;;;10.50;9.07;;;;;;;-10.38;100.00;98992.03;4926926;28;20555;-71
2021/12/22 05:24:13;;;;;;;9.40;8.50;;;;;;;-10.35;100.00;98982.59;4953495;28;20490;-70
2021/12/22 05:26:41;;;;;;;9.37;7.97;;;;;;;-10.38;100.00;98985.19;4928849;28;20496;-73
2021/12/22 05:29:09;;;;;;;10.00;8.67;;;;;;;-10.36;100.00;98987.75;4951332;28;20453;-71
2021/12/22 05:31:37;;;;;;;11.50;9.53;;;;;;;-10.28;100.00;98988.56;4950725;28;20570;-72
2021/12/22 05:34:05;;;;;;;9.13;8.30;;;;;;;-10.29;100.00;98991.97;4943694;28;20790;-71
2021/12/22 05:36:34;;;;;;;12.47;11.07;;;;;;;-10.35;100.00;98999.72;4932441;28;20868;-72
2021/12/22 05:39:02;;;;;;;10.93;9.80;;;;;;;-10.37;100.00;99015.09;4935677;28;20450;-71
2021/12/22 05:41:31;;;;;;;9.40;8.50;;;;;;;-10.43;100.00;99014.28;4949996;28;20446;-72
2021/12/22 05:43:59;;;;;;;12.67;10.53;;;;;;;-10.52;100.00;99015.22;4933056;28;20485;-70
2021/12/22 05:46:27;;;;;;;11.47;10.23;;;;;;;-10.49;100.00;99012.63;4947673;28;21228;-69
2021/12/22 05:48:55;;;;;;;10.80;9.70;;;;;;;-10.50;100.00;99011.75;4956779;28;20497;-70
2021/12/22 05:51:23;;;;;;;11.07;9.60;;;;;;;-10.43;100.00;99010.03;4934252;28;21672;-71
2021/12/22 05:53:51;;;;;;;11.37;10.27;;;;;;;-10.37;100.00;99004.84;4940217;28;20920;-71
2021/12/22 05:56:19;;;;;;;17.20;10.07;;;;;;;-10.45;100.00;99014.31;4951890;28;20476;-70
2021/12/22 05:58:49;;;;;;;14.20;9.87;;;;;;;-10.55;100.00;99005.81;4936252;28;20976;-71
2021/12/22 06:01:16;;;;;;;10.60;8.73;;;;;;;-10.58;100.00;98999.88;4939069;28;20821;-71
2021/12/22 06:03:46;;;;;;;9.80;8.77;;;;;;;-10.58;100.00;99007.56;4955864;28;20489;-70
2021/12/22 06:06:14;;;;;;;12.07;10.87;;;;;;;-10.65;100.00;99002.44;4956090;28;20631;-71
2021/12/22 06:08:42;;;;;;;11.23;10.13;;;;;;;-10.66;100.00;99002.47;4929801;28;20465;-69
2021/12/22 06:11:10;;;;;;;10.77;9.43;;;;;;;-10.66;100.00;99003.28;4929330;28;20663;-72
2021/12/22 06:13:38;;;;;;;15.90;10.13;;;;;;;-10.65;100.00;99004.16;4957605;28;20437;-70
2021/12/22 06:16:07;;;;;;;10.07;8.87;;;;;;;-10.54;100.00;98991.31;4918492;28;20819;-70
2021/12/22 06:18:41;;;;;;;14.27;10.13;;;;;;;-10.49;100.00;98995.53;4957730;28;20457;-72
2021/12/22 06:21:09;;;;;;;12.57;9.17;;;;;;;-10.48;100.00;98991.28;4955033;28;20803;-70
2021/12/22 06:23:38;;;;;;;12.20;11.07;;;;;;;-10.48;100.00;98998.97;4935929;28;20489;-71
2021/12/22 06:26:06;;;;;;;13.40;11.97;;;;;;;-10.43;100.00;99001.47;4925991;28;20753;-72
2021/12/22 06:28:34;;;;;;;12.63;11.47;;;;;;;-10.43;100.00;99004.03;4957335;28;21073;-71
2021/12/22 06:31:03;;;;;;;13.13;10.37;;;;;;;-10.47;100.00;98998.94;4923835;28;20460;-70
2021/12/22 06:33:32;;;;;;;12.23;10.67;;;;;;;-10.45;100.00;99001.50;4948520;28;20477;-72
2021/12/22 06:36:00;;;;;;;14.47;9.77;;;;;;;-10.45;100.00;99000.63;4953375;28;20504;-72
2021/12/22 06:38:28;;;;;;;11.23;9.83;;;;;;;-10.40;100.00;98993.81;4934089;28;20468;-73
2021/12/22 06:40:56;;;;;;;11.53;9.73;;;;;;;-10.38;100.00;98992.03;4943042;28;20516;-72
2021/12/22 06:43:25;;;;;;;10.70;8.60;;;;;;;-10.28;100.00;98988.56;4948871;28;20580;-70
2021/12/22 06:45:53;;;;;;;12.80;9.93;;;;;;;-10.25;100.00;98993.66;4923243;28;20512;-71
2021/12/22 06:48:21;;;;;;;11.00;9.83;;;;;;;-10.25;100.00;98985.97;4941949;28;20461;-71
2021/12/22 06:50:50;;;;;;;8.20;7.40;;;;;;;-10.31;100.00;98991.16;4955746;28;20869;-70
2021/12/22 06:53:18;;;;;;;12.03;8.93;;;;;;;-10.40;100.00;98983.53;4933548;28;20947;-73
2021/12/22 06:55:46;;;;;;;12.43;9.27;;;;;;;-10.39;100.00;98987.78;4949575;28;20489;-72
2021/12/22 06:58:14;;;;;;;10.47;8.57;;;;;;;-10.44;100.00;98986.97;4938101;28;20686;-72
2021/12/22 07:00:43;;;;;;;9.10;7.83;;;;;;;-10.36;100.00;98988.59;4920643;28;20827;-73
2021/12/22 07:03:11;;;;;;;9.57;8.17;;;;;;;-10.30;100.00;98987.72;4944062;28;20841;-73
2021/12/22 07:05:39;;;;;;;9.20;8.13;;;;;;;-10.32;100.00;98986.88;4936561;28;20489;-72
2021/12/22 07:08:08;;;;;;;8.97;8.07;;;;;;;-10.22;100.00;98988.50;4956327;28;20438;-71
2021/12/22 07:10:36;;;;;;;10.07;8.03;;;;;;;-10.17;100.00;98986.75;4930516;28;20468;-71
2021/12/22 07:13:06;;;;;;;10.17;9.17;;;;;;;-10.21;100.00;98992.78;4945166;28;20742;-69
2021/12/22 07:15:35;;;;;;;8.83;8.03;;;;;;;-10.15;100.00;98986.78;4939805;28;21009;-70
2021/12/22 07:18:03;;;;;;;9.47;8.37;;;;;;;-10.07;100.00;98996.94;4942823;28;21340;-73
2021/12/22 07:20:31;;;;;;;11.40;9.03;;;;;;;-10.19;100.00;99001.31;4947125;28;20462;-70
2021/12/22 07:22:59;;;;;;;8.47;7.60;;;;;;;-10.24;100.00;99005.63;4957975;28;20441;-69
2021/12/22 07:25:28;;;;;;;9.33;7.90;;;;;;;-10.21;100.00;99004.75;4937923;28;20492;-70
2021/12/22 07:27:56;;;;;;;10.67;8.07;;;;;;;-10.26;100.00;99019.28;4943571;28;20465;-71
2021/12/22 07:30:25;;;;;;;9.63;7.73;;;;;;;-10.20;100.00;99032.94;4952070;28;20441;-71
2021/12/22 07:32:56;;;;;;;8.57;7.80;;;;;;;-10.11;100.00;99024.34;4926137;28;21069;-71
2021/12/22 07:35:26;;;;;;;9.20;8.30;;;;;;;-10.13;100.00;99038.88;4945279;28;20486;-73
2021/12/22 07:37:59;;;;;;;10.27;8.47;;;;;;;-10.15;100.00;99040.63;4952201;28;20480;-74
2021/12/22 07:40:28;;;;;;;10.00;9.03;;;;;;;-10.12;100.00;99039.72;4955269;28;20958;-72
2021/12/22 07:42:56;;;;;;;11.03;8.77;;;;;;;-10.10;100.00;99032.88;4930467;28;20535;-73
2021/12/22 07:45:24;;;;;;;10.07;8.03;;;;;;;-10.00;100.00;99034.53;4950740;28;20598;-74
2021/12/22 07:47:52;;;;;;;8.43;7.63;;;;;;;-9.89;100.00;99039.56;4931121;28;20597;-75
2021/12/22 07:50:21;;;;;;;9.30;8.13;;;;;;;-9.82;100.00;99036.13;4935956;28;20874;-75
2021/12/22 07:52:49;;;;;;;9.67;7.93;;;;;;;-9.77;100.00;99043.78;4953941;28;20460;-73
2021/12/22 07:55:16;;;;;;;10.57;9.53;;;;;;;-9.69;100.00;99043.72;4950823;28;20465;-73
2021/12/22 07:57:46;;;;;;;12.83;9.33;;;;;;;-9.63;100.00;99046.25;4912502;28;20479;-72
2021/12/22 08:00:15;;;;;;;10.23;9.17;;;;;;;-9.58;100.00;99051.34;4949559;28;20449;-69
2021/12/22 08:02:43;;;;;;;11.53;9.07;;;;;;;-9.57;100.00;99050.47;4930962;28;20878;-71
2021/12/22 08:05:31;;;;;;;10.60;9.33;;;;;;;-9.52;100.00;99054.69;4948098;28;20538;-73
2021/12/22 08:08:00;;;;;;;9.10;8.17;;;;;;;-9.51;100.00;99045.28;4951248;28;20846;-71
2021/12/22 08:10:29;;;;;;;8.87;7.97;;;;;;;-9.44;100.00;99059.78;4955683;28;20453;-73
2021/12/22 08:12:59;;;;;;;12.73;8.93;;;;;;;-9.39;100.00;99057.19;4944513;28;20721;-73
2021/12/22 08:15:27;;;;;;;10.93;8.83;;;;;;;-9.36;100.00;99055.41;4949170;28;20885;-72
2021/12/22 08:17:55;;;;;;;11.93;10.60;;;;;;;-9.32;100.00;99058.81;4930360;28;21003;-72
2021/12/22 08:20:24;;;;;;;9.50;8.47;;;;;;;-9.23;100.00;99048.47;4949316;28;20470;-74
2021/12/22 08:22:52;;;;;;;11.57;10.37;;;;;;;-9.14;100.00;99052.66;4945784;28;20448;-73
2021/12/22 08:25:20;;;;;;;13.60;9.00;;;;;;;-9.09;100.00;99048.34;4952825;28;20493;-70
2021/12/22 08:27:48;;;;;;;13.43;9.53;;;;;;;-8.99;100.00;99045.66;4931032;28;20454;-72
2021/12/22 08:30:18;;;;;;;14.20;9.47;;;;;;;-8.93;100.00;99059.31;4945661;28;20861;-71
2021/12/22 08:32:47;;;;;;;14.47;10.37;;;;;;;-8.92;100.00;99055.00;4944229;28;20834;-70
2021/12/22 08:35:16;;;;;;;13.00;10.00;;;;;;;-8.85;100.00;99061.81;4937575;28;21040;-73
2021/12/22 08:40:30;;;;;;;12.80;10.47;;;;;;;-8.73;100.00;99066.81;4957815;28;20874;-72
2021/12/22 08:42:58;;;;;;;17.07;9.93;;;;;;;-8.58;100.00;99064.91;4935663;28;20450;-72
2021/12/22 08:45:28;;;;;;;13.83;10.83;;;;;;;-8.54;100.00;99060.59;4949094;28;20520;-74
2021/12/22 08:47:56;;;;;;;12.33;11.00;;;;;;;-8.46;100.00;99067.31;4948564;28;20456;-70
2021/12/22 08:50:26;;;;;;;10.47;9.47;;;;;;;-8.39;100.00;99064.69;4932759;28;20469;-70
2021/12/22 08:52:55;;;;;;;10.87;9.80;;;;;;;-8.33;100.00;99069.75;4946494;28;20514;-70
2021/12/22 08:55:23;;;;;;;10.30;9.30;;;;;;;-8.22;100.00;99067.88;4958077;28;20461;-71
2021/12/22 08:57:51;;;;;;;11.67;10.10;;;;;;;-8.10;100.00;99061.72;4934066;28;21055;-71
2021/12/22 09:00:19;;;;;;;15.43;10.17;;;;;;;-8.05;100.00;99056.53;4947916;28;20457;-71
2021/12/22 09:02:49;;;;;;;11.83;9.20;;;;;;;-7.94;100.00;99051.22;4947410;28;20890;-71
2021/12/22 09:05:20;;;;;;;10.50;9.37;;;;;;;-7.90;100.00;99064.00;4935419;28;20876;-71
2021/12/22 09:07:48;;;;;;;14.40;10.73;;;;;;;-7.75;100.00;99056.97;4946958;28;20472;-71
2021/12/22 09:10:16;;;;;;;13.23;10.70;;;;;;;-7.78;100.00;99055.25;4958762;28;20459;-72
2021/12/22 09:12:44;;;;;;;11.40;9.57;;;;;;;-7.52;100.00;99050.59;4938224;28;20949;-70
2021/12/22 09:15:12;;;;;;;9.67;8.70;;;;;;;-7.42;100.00;99053.00;4956984;28;20555;-73
2021/12/22 09:17:40;;;;;;;10.13;9.13;;;;;;;-7.28;100.00;99054.47;4944370;28;20458;-72
2021/12/22 09:20:12;;;;;;;14.97;10.10;;;;;;;-7.24;100.00;99045.81;4957577;28;20457;-72
2021/12/22 09:22:41;;;;;;;13.90;10.07;;;;;;;-7.20;100.00;99049.19;4926642;28;20851;-72
2021/12/22 09:25:13;;;;;;;17.17;9.17;;;;;;;-7.13;100.00;99043.06;4957971;28;20504;-69
2021/12/22 09:27:41;;;;;;;13.83;9.77;;;;;;;-6.99;100.00;99051.41;4954823;28;20445;-71
2021/12/22 09:30:10;;;;;;;12.17;10.70;;;;;;;-6.92;100.00;99049.53;4936812;28;20465;-71
2021/12/22 09:32:38;;;;;;;12.87;10.10;;;;;;;-6.85;100.00;99045.13;4946998;28;20458;-71
2021/12/22 09:35:07;;;;;;;11.17;9.50;;;;;;;-6.70;100.00;99044.00;4949590;28;21001;-70
2021/12/22 09:37:36;;;;;;;11.47;10.37;;;;;;;-6.56;100.00;99044.56;4933093;28;20454;-71
2021/12/22 09:40:06;;;;;;;14.13;9.23;;;;;;;-6.52;100.00;99039.34;4943414;28;20469;-73
2021/12/22 09:42:34;;;;;;;12.37;10.53;;;;;;;-6.41;100.00;99042.56;4957249;28;20454;-71
2021/12/22 09:45:04;;;;;;;14.53;10.50;;;;;;;-6.37;100.00;99027.84;4936119;28;24468;-72
2021/12/22 09:47:47;;;;;;;11.50;10.33;;;;;;;-6.29;100.00;99036.28;4949558;28;20829;-72
2021/12/22 09:50:24;;;;;;;12.07;9.97;;;;;;;-6.18;100.00;99034.34;4948147;28;20449;-71
2021/12/22 09:52:54;;;;;;;12.37;10.10;;;;;;;-6.14;100.00;99030.81;4929842;28;20484;-72
2021/12/22 09:55:22;;;;;;;15.73;11.50;;;;;;;-6.08;100.00;99021.22;4946336;28;20920;-73
2021/12/22 09:57:50;;;;;;;11.30;10.20;;;;;;;-5.98;100.00;99023.53;4952339;28;20889;-70
2021/12/22 10:00:18;;;;;;;16.07;11.57;;;;;;;-5.85;100.00;99024.13;4935533;28;20469;-69
2021/12/22 10:02:46;;;;;;;15.17;12.17;;;;;;;-5.78;100.00;99016.22;4942229;28;20997;-69
2021/12/22 10:05:14;;;;;;;16.13;11.60;;;;;;;-5.71;100.00;99013.44;4949444;28;20713;-71
2021/12/22 10:07:44;;;;;;;12.27;10.97;;;;;;;-5.63;100.00;99009.84;4932289;28;20473;-71
2021/12/22 10:10:16;;;;;;;12.57;11.10;;;;;;;-5.56;100.00;99006.22;4942400;28;20534;-73
2021/12/22 10:12:47;;;;;;;12.63;11.43;;;;;;;-5.47;100.00;99005.16;4946674;28;20453;-72
2021/12/22 10:15:16;;;;;;;15.23;10.30;;;;;;;-5.36;100.00;98997.97;4951518;28;20532;-71
2021/12/22 10:17:47;;;;;;;14.20;11.30;;;;;;;-5.31;100.00;98993.53;4928813;28;20544;-72
2021/12/22 10:20:20;;;;;;;12.87;11.47;;;;;;;-5.17;100.00;98989.72;4946309;28;21049;-71
2021/12/22 10:22:51;;;;;;;12.77;11.37;;;;;;;-5.09;100.00;98996.41;4932051;28;21736;-71
2021/12/22 10:25:22;;;;;;;13.80;10.47;;;;;;;-4.98;100.00;98983.19;4956827;28;20474;-70
2021/12/22 10:27:59;;;;;;;15.13;11.40;;;;;;;-4.95;100.00;98977.94;4944511;28;20576;-70
2021/12/22 10:30:30;;;;;;;11.97;10.53;;;;;;;-4.90;100.00;98975.22;4957157;28;20449;-70
2021/12/22 10:33:07;;;;;;;14.97;12.17;;;;;;;-4.85;100.00;98963.00;4933921;28;21048;-70
2021/12/22 10:35:38;;;;;;;11.77;10.63;;;;;;;-4.70;100.00;98959.16;4954106;28;20489;-71
2021/12/22 10:38:07;;;;;;;12.37;10.43;;;;;;;-4.63;100.00;98951.19;4931485;28;20458;-71
2021/12/22 10:40:38;;;;;;;11.63;10.43;;;;;;;-4.54;100.00;98954.38;4951297;28;20624;-73
2021/12/22 10:43:09;;;;;;;11.83;10.77;;;;;;;-4.47;100.00;98952.44;4955342;28;20974;-71
2021/12/22 10:45:37;;;;;;;13.20;11.20;;;;;;;-4.05;100.00;98964.13;4955829;28;21109;-72
2021/12/22 10:50:56;;;;;;;11.63;10.10;;;;;;;-4.04;100.00;98946.81;4933699;28;21289;-71
2021/12/22 10:53:24;;;;;;;14.13;11.77;;;;;;;-3.86;100.00;98948.84;4932455;28;20455;-73
2021/12/22 10:55:55;;;;;;;12.73;10.30;;;;;;;-3.66;100.00;98940.41;4941982;28;20701;-72
2021/12/22 10:58:26;;;;;;;11.13;10.03;;;;;;;-3.61;100.00;98942.00;4955517;28;20449;-71
2021/12/22 11:01:07;;;;;;;11.97;10.17;;;;;;;-3.53;100.00;98938.25;4950576;28;20461;-72
2021/12/22 11:03:40;;;;;;;13.67;9.70;;;;;;;-3.36;100.00;98936.81;4932066;28;20450;-71
2021/12/22 11:06:16;;;;;;;11.23;9.63;;;;;;;-3.30;100.00;98934.00;4947446;28;20483;-72
2021/12/22 11:08:56;;;;;;;10.37;9.23;;;;;;;-3.17;100.00;98925.81;4932368;28;20829;-70
2021/12/22 11:11:30;;;;;;;11.27;10.03;;;;;;;-3.09;100.00;98918.63;4955781;28;20452;-72
2021/12/22 11:14:07;;;;;;;10.13;9.03;;;;;;;-2.91;100.00;98927.47;4946307;28;20458;-73
2021/12/22 11:16:54;;;;;;;10.43;9.40;;;;;;;-2.79;100.00;98919.22;4954183;28;20469;-72
2021/12/22 11:19:23;;;;;;;11.17;9.80;;;;;;;-2.58;100.00;98915.88;4935431;28;20458;-73
2021/12/22 11:22:06;;;;;;;10.60;9.07;;;;;;;-2.42;100.00;98906.63;4941506;28;20469;-73
2021/12/22 11:24:36;;;;;;;12.17;10.33;;;;;;;-2.38;100.00;98900.41;4942683;28;20449;-71
2021/12/22 11:27:11;;;;;;;11.07;8.13;;;;;;;-2.34;100.00;98896.78;4939174;28;21061;-70
2021/12/22 11:29:41;;;;;;;9.20;8.27;;;;;;;-2.11;100.00;98897.59;4954525;28;20469;-71
2021/12/22 11:32:10;;;;;;;9.67;8.63;;;;;;;-1.81;100.00;98883.44;4954908;28;20679;-72
2021/12/22 11:34:39;;;;;;;12.60;9.23;;;;;;;-1.61;100.00;98887.78;4927672;28;20738;-70